createdAt,value
2018-12-07T00:00:47.356Z,11.70
2018-12-07T00:03:14.788Z,11.70
2018-12-07T00:05:42.229Z,11.80
2018-12-07T00:08:09.751Z,11.70
2018-12-07T00:10:37.192Z,11.70
2018-12-07T00:13:04.732Z,11.70
2018-12-07T00:15:32.936Z,11.70
2018-12-07T00:18:00.459Z,11.70
2018-12-07T00:20:27.904Z,11.70
2018-12-07T00:22:55.352Z,11.70
2018-12-07T00:25:22.902Z,11.70
2018-12-07T00:27:50.346Z,11.70
2018-12-07T00:30:18.588Z,11.70
2018-12-07T00:32:46.050Z,11.70
2018-12-07T00:35:13.502Z,11.70
2018-12-07T00:37:41.035Z,11.70
2018-12-07T00:40:08.550Z,11.70
2018-12-07T00:42:36.015Z,11.70
2018-12-07T00:45:04.167Z,11.70
2018-12-07T00:47:31.607Z,11.70
2018-12-07T00:49:59.059Z,11.70
2018-12-07T00:52:26.482Z,11.70
2018-12-07T00:54:53.910Z,11.70
2018-12-07T00:57:21.343Z,11.70
2018-12-07T00:59:48.795Z,11.70
2018-12-07T01:02:16.244Z,11.70
2018-12-07T01:04:43.692Z,11.70
2018-12-07T01:07:11.148Z,11.70
2018-12-07T01:09:38.604Z,11.70
2018-12-07T01:12:06.046Z,11.70
2018-12-07T01:14:33.486Z,11.60
2018-12-07T01:17:00.931Z,11.60
2018-12-07T01:19:28.458Z,11.60
2018-12-07T01:21:55.922Z,11.60
2018-12-07T01:24:23.434Z,11.60
2018-12-07T01:26:50.882Z,11.60
2018-12-07T01:29:18.331Z,11.60
2018-12-07T01:31:45.776Z,11.60
2018-12-07T01:34:13.314Z,11.60
2018-12-07T01:36:40.764Z,11.60
2018-12-07T01:39:08.222Z,11.60
2018-12-07T01:41:35.689Z,11.60
2018-12-07T01:44:03.129Z,11.60
2018-12-07T01:46:30.656Z,11.60
2018-12-07T01:48:58.099Z,11.60
2018-12-07T01:51:25.538Z,11.50
2018-12-07T01:53:52.978Z,11.50
2018-12-07T01:56:20.428Z,11.50
2018-12-07T01:58:47.850Z,11.50
2018-12-07T02:01:15.315Z,11.50
2018-12-07T02:03:42.758Z,11.50
2018-12-07T02:06:10.209Z,11.50
2018-12-07T02:08:37.667Z,11.50
2018-12-07T02:11:05.131Z,11.50
2018-12-07T02:13:32.576Z,11.50
2018-12-07T02:16:00.015Z,11.50
2018-12-07T02:18:27.467Z,11.50
2018-12-07T02:20:54.910Z,11.50
2018-12-07T02:23:22.359Z,11.50
2018-12-07T02:25:49.790Z,11.50
2018-12-07T02:28:17.251Z,11.50
2018-12-07T02:30:44.690Z,11.50
2018-12-07T02:33:12.159Z,11.50
2018-12-07T02:35:40.456Z,11.50
2018-12-07T02:38:07.906Z,11.50
2018-12-07T02:40:35.351Z,11.50
2018-12-07T02:43:02.807Z,11.50
2018-12-07T02:45:30.239Z,11.50
2018-12-07T02:47:57.696Z,11.50
2018-12-07T02:50:25.137Z,11.50
2018-12-07T02:52:52.586Z,11.50
2018-12-07T02:55:20.034Z,11.50
2018-12-07T02:57:47.487Z,11.50
2018-12-07T03:00:14.915Z,11.50
2018-12-07T03:02:42.358Z,11.60
2018-12-07T03:05:09.823Z,11.60
2018-12-07T03:07:37.267Z,11.60
2018-12-07T03:10:05.892Z,11.60
2018-12-07T03:12:33.341Z,11.60
2018-12-07T03:15:00.859Z,11.60
2018-12-07T03:17:28.319Z,11.60
2018-12-07T03:19:55.843Z,11.60
2018-12-07T03:22:23.292Z,11.60
2018-12-07T03:24:50.742Z,11.60
2018-12-07T03:27:18.188Z,11.60
2018-12-07T03:29:45.724Z,11.60
2018-12-07T03:32:13.184Z,11.70
2018-12-07T03:34:40.618Z,11.70
2018-12-07T03:37:08.071Z,11.70
2018-12-07T03:39:35.530Z,11.60
2018-12-07T03:42:02.962Z,11.60
2018-12-07T03:44:30.402Z,11.60
2018-12-07T03:46:57.837Z,11.60
2018-12-07T03:49:25.302Z,11.60
2018-12-07T03:51:52.823Z,11.60
2018-12-07T03:54:20.268Z,11.70
2018-12-07T03:56:47.707Z,11.70
2018-12-07T03:59:15.160Z,11.70
2018-12-07T04:01:42.692Z,11.70
2018-12-07T04:04:10.145Z,11.70
2018-12-07T04:06:37.575Z,11.70
2018-12-07T04:09:06.731Z,11.70
2018-12-07T04:11:34.175Z,11.70
2018-12-07T04:14:01.613Z,11.80
2018-12-07T04:16:29.069Z,11.80
2018-12-07T04:18:56.516Z,11.80
2018-12-07T04:21:24.053Z,11.80
2018-12-07T04:23:51.493Z,11.70
2018-12-07T04:26:19.023Z,11.80
2018-12-07T04:28:46.475Z,11.80
2018-12-07T04:31:13.930Z,11.80
2018-12-07T04:33:41.387Z,11.80
2018-12-07T04:36:08.837Z,11.80
2018-12-07T04:38:36.283Z,11.80
2018-12-07T04:41:03.735Z,11.80
2018-12-07T04:43:31.264Z,11.80
2018-12-07T04:45:58.704Z,11.70
2018-12-07T04:48:26.154Z,11.80
2018-12-07T04:50:53.621Z,11.80
2018-12-07T04:53:21.055Z,11.80
2018-12-07T04:55:48.515Z,11.80
2018-12-07T04:58:15.958Z,11.80
2018-12-07T05:00:43.412Z,11.80
2018-12-07T05:03:10.859Z,11.80
2018-12-07T05:05:38.393Z,11.80
2018-12-07T05:08:05.914Z,11.80
2018-12-07T05:10:33.370Z,11.80
2018-12-07T05:13:00.803Z,11.80
2018-12-07T05:15:28.257Z,11.80
2018-12-07T05:17:55.703Z,11.80
2018-12-07T05:20:23.171Z,11.90
2018-12-07T05:22:50.600Z,11.80
2018-12-07T05:25:18.036Z,11.80
2018-12-07T05:27:45.482Z,11.80
2018-12-07T05:30:12.935Z,11.80
2018-12-07T05:32:40.379Z,11.80
2018-12-07T05:35:07.837Z,11.80
2018-12-07T05:37:35.359Z,11.80
2018-12-07T05:40:03.692Z,11.80
2018-12-07T05:42:31.138Z,11.90
2018-12-07T05:44:58.673Z,11.90
2018-12-07T05:47:26.134Z,11.80
2018-12-07T05:49:53.586Z,11.80
2018-12-07T05:52:21.040Z,11.80
2018-12-07T05:54:48.466Z,11.80
2018-12-07T05:57:15.919Z,11.80
2018-12-07T05:59:43.365Z,11.90
2018-12-07T06:02:10.816Z,11.90
2018-12-07T06:04:38.259Z,11.80
2018-12-07T06:07:05.698Z,11.80
2018-12-07T06:09:33.235Z,11.80
2018-12-07T06:12:00.696Z,11.90
2018-12-07T06:14:28.219Z,11.90
2018-12-07T06:16:55.666Z,11.90
2018-12-07T06:19:23.133Z,11.90
2018-12-07T06:21:50.657Z,11.90
2018-12-07T06:24:18.099Z,12.00
2018-12-07T06:26:45.538Z,11.90
2018-12-07T06:29:13.000Z,12.00
2018-12-07T06:31:40.456Z,12.00
2018-12-07T06:34:07.906Z,12.00
2018-12-07T06:36:35.354Z,12.00
2018-12-07T06:39:04.508Z,12.00
2018-12-07T06:41:31.967Z,12.00
2018-12-07T06:43:59.422Z,11.90
2018-12-07T06:46:26.868Z,12.00
2018-12-07T06:49:05.923Z,11.90
2018-12-07T06:51:33.372Z,11.90
2018-12-07T06:54:00.826Z,12.00
2018-12-07T06:56:28.271Z,11.90
2018-12-07T06:58:55.724Z,11.90
2018-12-07T07:01:23.181Z,11.90
2018-12-07T07:03:50.639Z,11.90
2018-12-07T07:06:18.086Z,11.90
2018-12-07T07:08:45.539Z,12.00
2018-12-07T07:11:12.998Z,12.00
2018-12-07T07:13:40.445Z,12.00
2018-12-07T07:16:07.895Z,12.00
2018-12-07T07:18:35.356Z,12.00
2018-12-07T07:21:02.804Z,12.00
2018-12-07T07:23:30.262Z,12.00
2018-12-07T07:25:57.699Z,12.00
2018-12-07T07:28:25.167Z,12.00
2018-12-07T07:30:52.644Z,12.00
2018-12-07T07:33:20.076Z,12.00
2018-12-07T07:35:47.530Z,11.90
2018-12-07T07:38:15.054Z,12.00
2018-12-07T07:40:42.591Z,12.00
2018-12-07T07:43:10.231Z,12.00
2018-12-07T07:45:37.686Z,12.00
2018-12-07T07:48:05.134Z,12.00
2018-12-07T07:50:32.570Z,12.00
2018-12-07T07:53:00.048Z,12.00
2018-12-07T07:55:27.499Z,12.10
2018-12-07T07:57:54.938Z,12.10
2018-12-07T08:00:22.415Z,12.10
2018-12-07T08:02:49.880Z,12.10
2018-12-07T08:05:17.351Z,12.10
2018-12-07T08:07:44.875Z,12.10
2018-12-07T08:10:12.302Z,12.10
2018-12-07T08:12:39.768Z,12.10
2018-12-07T08:15:07.262Z,12.10
2018-12-07T08:17:34.695Z,12.10
2018-12-07T08:20:02.203Z,12.10
2018-12-07T08:22:29.649Z,12.10
2018-12-07T08:24:57.114Z,12.10
2018-12-07T08:27:24.573Z,12.20
2018-12-07T08:29:52.051Z,12.10
2018-12-07T08:32:20.207Z,12.20
2018-12-07T08:34:47.735Z,12.20
2018-12-07T08:37:15.161Z,12.20
2018-12-07T08:39:42.615Z,12.20
2018-12-07T08:42:10.083Z,12.20
2018-12-07T08:44:37.596Z,12.20
2018-12-07T08:47:05.362Z,12.20
2018-12-07T08:49:38.570Z,12.20
2018-12-07T08:52:06.003Z,12.20
2018-12-07T08:54:33.459Z,12.20
2018-12-07T08:57:00.919Z,12.20
2018-12-07T08:59:28.374Z,12.20
2018-12-07T09:01:55.833Z,12.20
2018-12-07T09:04:23.271Z,12.20
2018-12-07T09:06:50.730Z,12.20
2018-12-07T09:09:18.187Z,12.20
2018-12-07T09:11:45.636Z,12.20
2018-12-07T09:14:13.062Z,12.20
2018-12-07T09:16:40.531Z,12.20
2018-12-07T09:19:07.972Z,12.20
2018-12-07T09:21:35.447Z,12.30
2018-12-07T09:24:03.410Z,12.30
2018-12-07T09:26:31.120Z,12.30
2018-12-07T09:28:58.559Z,12.30
2018-12-07T09:31:25.995Z,12.30
2018-12-07T09:33:53.431Z,12.20
2018-12-07T09:36:20.879Z,12.20
2018-12-07T09:38:48.327Z,12.20
2018-12-07T09:41:15.772Z,12.20
2018-12-07T09:43:43.227Z,12.30
2018-12-07T09:46:10.686Z,12.30
2018-12-07T09:48:38.130Z,12.30
2018-12-07T09:51:05.590Z,12.30
2018-12-07T09:53:34.464Z,12.30
2018-12-07T09:56:02.167Z,12.30
2018-12-07T09:58:29.603Z,12.30
2018-12-07T10:00:57.054Z,12.30
2018-12-07T10:03:24.482Z,12.30
2018-12-07T10:05:51.952Z,12.30
2018-12-07T10:08:19.399Z,12.40
2018-12-07T10:10:46.840Z,12.40
2018-12-07T10:13:14.291Z,12.30
2018-12-07T10:15:41.733Z,12.40
2018-12-07T10:18:09.182Z,12.40
2018-12-07T10:20:36.632Z,12.40
2018-12-07T10:23:04.082Z,12.50
2018-12-07T10:25:31.528Z,12.40
2018-12-07T10:27:58.984Z,12.50
2018-12-07T10:30:26.525Z,12.50
2018-12-07T10:32:53.981Z,12.60
2018-12-07T10:35:21.440Z,12.50
2018-12-07T10:37:48.893Z,12.60
2018-12-07T10:40:16.338Z,12.50
2018-12-07T10:42:43.795Z,12.60
2018-12-07T10:45:11.240Z,12.60
2018-12-07T10:47:38.680Z,12.60
2018-12-07T10:50:06.234Z,12.60
2018-12-07T10:52:33.673Z,12.60
2018-12-07T10:55:01.123Z,12.50
2018-12-07T10:57:28.575Z,12.50
2018-12-07T10:59:56.052Z,12.50
2018-12-07T11:02:29.196Z,12.50
2018-12-07T11:05:02.440Z,12.50
2018-12-07T11:07:35.354Z,12.50
2018-12-07T11:10:09.823Z,12.60
2018-12-07T11:12:42.830Z,12.70
2018-12-07T11:15:15.972Z,12.60
2018-12-07T11:17:49.095Z,12.60
2018-12-07T11:20:22.310Z,12.60
2018-12-07T11:22:55.464Z,12.60
2018-12-07T11:25:28.546Z,12.50
2018-12-07T11:31:12.951Z,12.50
2018-12-07T11:33:42.302Z,12.50
2018-12-07T11:36:09.748Z,12.50
2018-12-07T11:38:37.189Z,12.60
2018-12-07T11:41:04.631Z,12.60
2018-12-07T11:43:32.083Z,12.60
2018-12-07T11:45:59.539Z,12.60
2018-12-07T11:48:26.962Z,12.60
2018-12-07T11:50:54.420Z,12.70
2018-12-07T11:53:21.856Z,12.70
2018-12-07T11:55:49.298Z,12.60
2018-12-07T11:58:16.734Z,12.70
2018-12-07T12:00:44.186Z,12.80
2018-12-07T12:03:11.650Z,12.70
2018-12-07T12:05:39.102Z,12.70
2018-12-07T12:08:06.549Z,12.70
2018-12-07T12:10:33.988Z,12.60
2018-12-07T12:13:01.435Z,12.60
2018-12-07T12:15:28.895Z,12.60
2018-12-07T12:17:56.327Z,12.70
2018-12-07T12:20:23.771Z,12.70
2018-12-07T12:22:51.246Z,12.70
2018-12-07T12:25:18.687Z,12.80
2018-12-07T12:27:46.123Z,12.70
2018-12-07T12:30:13.568Z,12.70
2018-12-07T12:32:41.020Z,12.70
2018-12-07T12:35:08.458Z,12.70
2018-12-07T12:37:35.892Z,12.80
2018-12-07T12:40:03.839Z,12.70
2018-12-07T12:42:31.294Z,12.70
2018-12-07T12:44:58.740Z,12.70
2018-12-07T12:47:26.199Z,12.60
2018-12-07T12:49:53.725Z,12.60
2018-12-07T12:52:21.155Z,12.60
2018-12-07T12:54:48.595Z,12.50
2018-12-07T12:57:16.027Z,12.40
2018-12-07T12:59:43.480Z,12.40
2018-12-07T13:02:10.941Z,12.40
2018-12-07T13:04:38.411Z,12.30
2018-12-07T13:07:05.867Z,12.30
2018-12-07T13:09:33.391Z,12.30
2018-12-07T13:12:00.816Z,12.30
2018-12-07T13:14:28.276Z,12.20
2018-12-07T13:16:55.762Z,12.20
2018-12-07T13:19:23.255Z,12.10
2018-12-07T13:21:50.691Z,12.20
2018-12-07T13:24:18.171Z,12.20
2018-12-07T13:26:45.616Z,12.10
2018-12-07T13:29:13.046Z,12.10
2018-12-07T13:31:40.486Z,12.10
2018-12-07T13:34:07.945Z,12.10
2018-12-07T13:36:35.469Z,12.00
2018-12-07T13:39:05.450Z,12.00
2018-12-07T13:41:33.027Z,12.00
2018-12-07T13:44:00.531Z,12.00
2018-12-07T13:46:28.141Z,12.00
2018-12-07T13:48:55.647Z,12.00
2018-12-07T13:51:23.350Z,12.00
2018-12-07T13:53:51.010Z,12.00
2018-12-07T13:56:18.561Z,12.00
2018-12-07T13:58:46.185Z,12.10
2018-12-07T14:01:13.903Z,12.10
2018-12-07T14:03:41.414Z,12.10
2018-12-07T14:06:08.875Z,12.10
2018-12-07T14:08:36.500Z,12.10
2018-12-07T14:11:04.261Z,12.10
2018-12-07T14:13:31.894Z,12.10
2018-12-07T14:15:59.424Z,12.20
2018-12-07T14:18:27.085Z,12.20
2018-12-07T14:20:54.819Z,12.20
2018-12-07T14:23:22.618Z,12.20
2018-12-07T14:25:50.208Z,12.30
2018-12-07T14:28:17.889Z,12.30
2018-12-07T14:30:45.616Z,12.30
2018-12-07T14:33:13.163Z,12.30
2018-12-07T14:35:40.639Z,12.40
2018-12-07T14:38:08.174Z,12.40
2018-12-07T14:40:35.800Z,12.20
2018-12-07T14:43:03.272Z,12.20
2018-12-07T14:45:30.808Z,12.30
2018-12-07T14:47:58.298Z,12.40
2018-12-07T14:50:25.785Z,12.40
2018-12-07T14:52:53.292Z,12.40
2018-12-07T14:55:21.053Z,12.40
2018-12-07T14:57:48.683Z,12.40
2018-12-07T15:00:16.320Z,12.40
2018-12-07T15:02:44.002Z,12.30
2018-12-07T15:05:11.556Z,12.20
2018-12-07T15:07:39.147Z,12.20
2018-12-07T15:10:07.708Z,12.20
2018-12-07T15:12:35.371Z,12.20
2018-12-07T15:15:04.008Z,12.20
2018-12-07T15:17:31.553Z,12.20
2018-12-07T15:19:59.178Z,12.30
2018-12-07T15:22:26.740Z,12.30
2018-12-07T15:24:54.285Z,12.40
2018-12-07T15:27:21.854Z,12.40
2018-12-07T15:29:49.387Z,12.40
2018-12-07T15:32:16.993Z,12.40
2018-12-07T15:34:44.774Z,12.40
2018-12-07T15:37:12.484Z,12.30
2018-12-07T15:39:40.083Z,12.30
2018-12-07T15:42:07.574Z,12.40
2018-12-07T15:44:35.142Z,12.40
2018-12-07T15:47:02.798Z,12.40
2018-12-07T15:49:30.651Z,12.30
2018-12-07T15:51:58.303Z,12.30
2018-12-07T15:54:25.946Z,12.20
2018-12-07T15:56:53.745Z,12.20
2018-12-07T15:59:21.342Z,12.20
2018-12-07T16:01:48.883Z,12.30
2018-12-07T16:04:16.472Z,12.30
2018-12-07T16:06:43.999Z,12.30
2018-12-07T16:09:11.645Z,12.30
2018-12-07T16:11:39.157Z,12.40
2018-12-07T16:14:06.621Z,12.30
2018-12-07T16:16:34.083Z,12.20
2018-12-07T16:19:01.545Z,12.20
2018-12-07T16:21:29.042Z,12.20
2018-12-07T16:23:56.714Z,12.20
2018-12-07T16:26:24.400Z,12.20
2018-12-07T16:28:51.895Z,12.20
2018-12-07T16:31:19.420Z,12.20
2018-12-07T16:33:46.865Z,12.20
2018-12-07T16:36:14.512Z,12.20
2018-12-07T16:38:43.007Z,12.20
2018-12-07T16:41:10.766Z,12.20
2018-12-07T16:43:38.456Z,12.20
2018-12-07T16:46:05.992Z,12.20
2018-12-07T16:48:33.525Z,12.20
2018-12-07T16:51:01.284Z,12.20
2018-12-07T16:53:28.882Z,12.20
2018-12-07T16:55:56.359Z,12.20
2018-12-07T16:58:24.040Z,12.20
2018-12-07T17:00:51.584Z,12.20
2018-12-07T17:03:19.328Z,12.20
2018-12-07T17:05:47.142Z,12.10
2018-12-07T17:08:14.839Z,12.10
2018-12-07T17:10:42.379Z,12.20
2018-12-07T17:13:09.855Z,12.20
2018-12-07T17:15:37.386Z,12.20
2018-12-07T17:18:05.243Z,12.10
2018-12-07T17:20:32.729Z,12.10
2018-12-07T17:23:00.623Z,12.10
2018-12-07T17:25:28.402Z,12.10
2018-12-07T17:27:56.717Z,12.10
2018-12-07T17:30:24.315Z,12.10
2018-12-07T17:32:51.918Z,12.20
2018-12-07T17:35:19.652Z,12.20
2018-12-07T17:37:47.430Z,12.20
2018-12-07T17:40:14.968Z,12.20
2018-12-07T17:42:42.514Z,12.20
2018-12-07T17:45:10.075Z,12.20
2018-12-07T17:47:37.552Z,12.20
2018-12-07T17:50:06.524Z,12.20
2018-12-07T17:52:34.201Z,12.20
2018-12-07T17:55:01.972Z,12.20
2018-12-07T17:57:29.525Z,12.20
2018-12-07T17:59:57.301Z,12.20
2018-12-07T18:02:24.900Z,12.30
2018-12-07T18:04:52.359Z,12.30
2018-12-07T18:07:19.820Z,12.20
2018-12-07T18:09:47.253Z,12.20
2018-12-07T18:12:14.891Z,12.10
2018-12-07T18:14:42.510Z,12.10
2018-12-07T18:17:10.042Z,12.20
2018-12-07T18:19:37.562Z,12.20
2018-12-07T18:22:05.018Z,12.10
2018-12-07T18:24:32.722Z,12.00
2018-12-07T18:27:00.500Z,12.00
2018-12-07T18:29:28.112Z,12.10
2018-12-07T18:31:55.879Z,12.10
2018-12-07T18:34:23.506Z,12.10
2018-12-07T18:36:51.221Z,12.20
2018-12-07T18:39:19.004Z,12.10
2018-12-07T18:41:46.663Z,12.10
2018-12-07T18:44:14.306Z,12.10
2018-12-07T18:46:42.271Z,12.00
2018-12-07T18:49:09.932Z,12.00
2018-12-07T18:51:37.454Z,11.90
2018-12-07T18:54:04.892Z,11.90
2018-12-07T18:56:32.363Z,11.90
2018-12-07T18:59:00.095Z,11.90
2018-12-07T19:01:27.768Z,11.90
2018-12-07T19:03:55.274Z,11.90
2018-12-07T19:06:22.770Z,11.90
2018-12-07T19:08:50.261Z,11.90
2018-12-07T19:11:17.946Z,12.00
2018-12-07T19:13:45.643Z,11.90
2018-12-07T19:16:13.133Z,11.80
2018-12-07T19:18:40.714Z,11.80
2018-12-07T19:21:08.250Z,11.80
2018-12-07T19:23:35.941Z,11.80
2018-12-07T19:26:03.603Z,11.80
2018-12-07T19:28:31.287Z,11.70
2018-12-07T19:30:59.039Z,11.80
2018-12-07T19:33:26.688Z,11.70
2018-12-07T19:35:54.373Z,11.80
2018-12-07T19:38:21.987Z,11.80
2018-12-07T19:40:49.618Z,11.80
2018-12-07T19:43:17.113Z,11.80
2018-12-07T19:45:45.312Z,11.70
2018-12-07T19:48:13.210Z,11.60
2018-12-07T19:50:40.839Z,11.60
2018-12-07T19:53:08.471Z,11.60
2018-12-07T19:55:36.015Z,11.60
2018-12-07T19:58:03.663Z,11.50
2018-12-07T20:00:31.217Z,11.50
2018-12-07T20:02:58.823Z,11.50
2018-12-07T20:05:26.616Z,11.60
2018-12-07T20:07:55.173Z,11.60
2018-12-07T20:10:23.064Z,11.60
2018-12-07T20:12:50.725Z,11.40
2018-12-07T20:15:18.322Z,11.40
2018-12-07T20:17:46.032Z,11.40
2018-12-07T20:20:13.776Z,11.30
2018-12-07T20:22:41.370Z,10.20
2018-12-07T20:25:09.033Z,9.80
2018-12-07T20:27:38.023Z,9.60
2018-12-07T20:30:07.677Z,9.30
2018-12-07T20:32:35.357Z,9.20
2018-12-07T20:35:03.120Z,9.10
2018-12-07T20:37:30.777Z,9.00
2018-12-07T20:39:58.359Z,8.90
2018-12-07T20:42:26.058Z,8.90
2018-12-07T20:44:53.551Z,8.80
2018-12-07T20:47:24.970Z,8.80
2018-12-07T20:49:50.471Z,8.70
2018-12-07T20:52:17.951Z,8.60
2018-12-07T20:54:45.503Z,8.60
2018-12-07T20:57:13.068Z,8.60
2018-12-07T20:59:40.958Z,8.60
2018-12-07T21:02:08.759Z,8.60
2018-12-07T21:04:36.462Z,8.50
2018-12-07T21:13:47.555Z,8.30
2018-12-07T21:19:33.459Z,8.10
2018-12-07T21:22:01.383Z,8.00
2018-12-07T21:24:29.191Z,8.00
2018-12-07T21:26:56.702Z,7.90
2018-12-07T21:29:24.310Z,7.90
2018-12-07T21:31:55.071Z,7.90
2018-12-07T21:37:30.911Z,7.90
2018-12-07T21:40:02.181Z,7.90
2018-12-07T21:42:29.682Z,7.80
2018-12-07T21:44:57.242Z,7.80
2018-12-07T21:47:34.589Z,7.80
2018-12-07T21:50:04.846Z,7.80
2018-12-07T21:52:32.381Z,7.80
2018-12-07T21:54:59.987Z,7.80
2018-12-07T21:57:29.414Z,7.70
2018-12-07T21:59:57.252Z,7.60
2018-12-07T22:02:24.831Z,7.60
2018-12-07T22:04:52.547Z,7.60
2018-12-07T22:07:20.420Z,7.60
2018-12-07T22:09:48.077Z,7.70
2018-12-07T22:12:15.621Z,7.50
2018-12-07T22:14:43.559Z,7.50
2018-12-07T22:17:11.390Z,7.50
2018-12-07T22:19:38.897Z,7.50
2018-12-07T22:22:06.415Z,7.40
2018-12-07T22:24:34.030Z,7.40
2018-12-07T22:27:01.898Z,7.40
2018-12-07T22:29:29.729Z,7.30
2018-12-07T22:31:57.254Z,7.30
2018-12-07T22:34:24.910Z,7.40
2018-12-07T22:36:52.926Z,7.40
2018-12-07T22:39:20.885Z,7.40
2018-12-07T22:41:48.486Z,7.30
2018-12-07T22:44:15.942Z,7.30
2018-12-07T22:46:43.370Z,7.30
2018-12-07T22:49:10.810Z,7.30
2018-12-07T22:51:38.256Z,7.30
2018-12-07T22:54:05.718Z,7.30
2018-12-07T22:56:33.166Z,7.30
2018-12-07T22:59:00.607Z,7.30
2018-12-07T23:01:28.244Z,7.30
2018-12-07T23:03:55.679Z,7.30
2018-12-07T23:06:23.111Z,7.30
2018-12-07T23:08:50.554Z,7.30
2018-12-07T23:11:18.080Z,7.30
2018-12-07T23:13:45.511Z,7.40
2018-12-07T23:16:12.956Z,7.40
2018-12-07T23:18:40.395Z,7.30
2018-12-07T23:21:07.830Z,7.30
2018-12-07T23:23:35.274Z,7.30
2018-12-07T23:26:03.615Z,7.30
2018-12-07T23:28:31.030Z,7.30
2018-12-07T23:30:58.480Z,7.40
2018-12-07T23:33:25.924Z,7.40
2018-12-07T23:35:53.364Z,7.40
2018-12-07T23:38:20.894Z,7.40
2018-12-07T23:40:48.335Z,7.40
2018-12-07T23:43:15.782Z,7.40
2018-12-07T23:45:43.233Z,7.70
2018-12-07T23:48:10.756Z,7.70
2018-12-07T23:50:38.186Z,7.60
2018-12-07T23:53:05.727Z,7.60
2018-12-07T23:55:33.462Z,7.60
2018-12-07T23:58:00.891Z,7.60
